Time;durP1;ratioP1;P1;durP2;ratioP2;P2;SDS_P1;SDS_P2;PMS_P1;PMS_P2;Temp;Humidity;BMP_temperature;BMP_pressure;BME280_temperature;BME280_humidity;BME280_pressure;Samples;Min_cycle;Max_cycle;Signal;HPM_P1;HPM_P2
2023/05/31 00:02:14;;;;;;;17.92;9.18;;;12.00;99.90;;;;;;5063841;28;20229;-84
2023/05/31 00:04:43;;;;;;;16.50;8.10;;;12.10;99.90;;;;;;5065846;28;20265;-80
2023/05/31 00:07:09;;;;;;;22.08;9.20;;;12.00;99.90;;;;;;5080735;28;20224;-84
2023/05/31 00:10:06;;;;;;;12.75;8.73;;;12.00;99.90;;;;;;5060881;28;20187;-82
2023/05/31 00:12:33;;;;;;;14.88;9.18;;;12.00;99.90;;;;;;5052099;28;20299;-80
2023/05/31 00:15:01;;;;;;;16.83;8.90;;;12.00;99.90;;;;;;5072240;28;20278;-83
2023/05/31 00:17:28;;;;;;;16.23;11.27;;;11.90;99.90;;;;;;5061903;28;20617;-83
2023/05/31 00:19:55;;;;;;;13.20;8.25;;;11.90;99.90;;;;;;5067346;28;20245;-84
2023/05/31 00:22:22;;;;;;;23.13;9.95;;;11.90;99.90;;;;;;5068835;28;20252;-81
2023/05/31 00:24:49;;;;;;;16.25;11.50;;;11.90;99.90;;;;;;5070771;28;20202;-82
2023/05/31 00:27:16;;;;;;;20.42;9.95;;;11.80;99.90;;;;;;5069358;28;20275;-81
2023/05/31 00:29:43;;;;;;;18.60;9.48;;;11.80;99.90;;;;;;5056909;28;20202;-82
2023/05/31 00:32:11;;;;;;;19.25;10.40;;;11.90;99.90;;;;;;5073004;28;20278;-84
2023/05/31 00:34:40;;;;;;;16.73;10.63;;;11.80;99.90;;;;;;5073306;28;20233;-85
2023/05/31 00:37:07;;;;;;;15.90;7.72;;;11.80;99.90;;;;;;5075069;28;20237;-82
2023/05/31 00:39:35;;;;;;;19.70;8.50;;;11.80;99.90;;;;;;5064706;28;20196;-81
2023/05/31 00:42:02;;;;;;;18.58;9.38;;;11.70;99.90;;;;;;5076177;28;20246;-81
2023/05/31 00:44:29;;;;;;;16.00;9.93;;;11.70;99.90;;;;;;5058447;28;20670;-82
2023/05/31 00:46:57;;;;;;;24.65;9.20;;;11.90;99.90;;;;;;5072948;28;20206;-79
2023/05/31 00:49:29;;;;;;;18.17;10.20;;;11.70;99.90;;;;;;5083889;28;20208;-82
2023/05/31 00:51:56;;;;;;;16.48;9.90;;;11.70;99.90;;;;;;5060498;28;20229;-83
2023/05/31 00:54:23;;;;;;;15.35;8.65;;;11.70;99.90;;;;;;5058271;28;20308;-82
2023/05/31 00:56:52;;;;;;;17.33;8.25;;;11.70;99.90;;;;;;5046549;28;20200;-80
2023/05/31 00:59:19;;;;;;;17.00;8.77;;;11.70;99.90;;;;;;5052610;28;20377;-82
2023/05/31 01:01:47;;;;;;;21.08;9.88;;;11.70;99.90;;;;;;5053121;28;20210;-82
2023/05/31 01:04:14;;;;;;;21.30;10.65;;;11.70;99.90;;;;;;5073074;28;20205;-84
2023/05/31 01:06:43;;;;;;;15.60;8.40;;;11.70;99.90;;;;;;5055456;28;20218;-83
2023/05/31 01:09:10;;;;;;;19.02;10.15;;;11.70;99.90;;;;;;5071196;28;20233;-83
2023/05/31 01:11:52;;;;;;;16.88;8.40;;;11.70;99.90;;;;;;5071906;28;20207;-80
2023/05/31 01:14:30;;;;;;;16.45;9.05;;;11.60;99.90;;;;;;5071840;28;20231;-80
2023/05/31 01:17:14;;;;;;;14.98;9.00;;;11.60;99.90;;;;;;5074460;28;20233;-78
2023/05/31 01:19:47;;;;;;;20.02;9.27;;;11.60;99.90;;;;;;5071645;28;20265;-78
2023/05/31 01:22:27;;;;;;;20.15;10.23;;;11.50;99.90;;;;;;5068216;28;20250;-79
2023/05/31 01:25:10;;;;;;;18.33;9.70;;;11.60;99.90;;;;;;5060345;28;20270;-80
2023/05/31 01:27:41;;;;;;;21.95;9.55;;;11.50;99.90;;;;;;5073581;28;20222;-79
2023/05/31 01:30:10;;;;;;;18.58;9.43;;;11.50;99.90;;;;;;5068254;28;20199;-82
2023/05/31 01:32:39;;;;;;;18.80;9.25;;;11.50;99.90;;;;;;5077044;28;20666;-82
2023/05/31 01:35:06;;;;;;;18.58;7.97;;;11.50;99.90;;;;;;5053807;28;20270;-83
2023/05/31 01:37:33;;;;;;;14.68;9.73;;;11.50;99.90;;;;;;5071151;28;20200;-81
2023/05/31 01:40:00;;;;;;;15.23;8.98;;;11.40;99.90;;;;;;5087155;28;20232;-80
2023/05/31 01:42:29;;;;;;;15.93;9.52;;;11.40;99.90;;;;;;5064317;28;20219;-80
2023/05/31 01:44:58;;;;;;;21.92;10.18;;;11.40;99.90;;;;;;5065827;28;20198;-82
2023/05/31 01:47:26;;;;;;;14.98;8.77;;;11.40;99.90;;;;;;5062702;28;20268;-83
2023/05/31 01:49:54;;;;;;;15.57;9.20;;;11.40;99.90;;;;;;5061420;28;20202;-82
2023/05/31 01:52:22;;;;;;;18.73;10.15;;;11.40;99.90;;;;;;5063004;28;20706;-84
2023/05/31 01:54:49;;;;;;;21.38;10.20;;;11.40;99.90;;;;;;5056774;28;20248;-81
2023/05/31 01:57:18;;;;;;;27.77;12.20;;;11.40;99.90;;;;;;5061057;28;20202;-84
2023/05/31 01:59:46;;;;;;;18.08;9.75;;;11.30;99.90;;;;;;5052826;28;20294;-83
2023/05/31 02:02:15;;;;;;;21.00;9.40;;;11.50;99.90;;;;;;5050489;28;20244;-84
2023/05/31 02:04:42;;;;;;;20.13;11.38;;;11.40;99.90;;;;;;5073114;28;20196;-81
2023/05/31 02:07:16;;;;;;;15.48;9.10;;;11.30;99.90;;;;;;5071199;28;20231;-82
2023/05/31 02:09:43;;;;;;;12.93;7.75;;;11.40;99.90;;;;;;5072160;28;20251;-82
2023/05/31 02:12:10;;;;;;;18.20;10.13;;;11.40;99.90;;;;;;5068322;28;20257;-84
2023/05/31 02:14:37;;;;;;;18.42;9.30;;;11.30;99.90;;;;;;5077368;28;20234;-80
2023/05/31 02:17:06;;;;;;;22.80;9.90;;;11.30;99.90;;;;;;5065272;28;20269;-80
2023/05/31 02:19:36;;;;;;;20.83;10.40;;;11.30;99.90;;;;;;5058820;28;20624;-81
2023/05/31 02:22:03;;;;;;;22.13;10.90;;;11.30;99.90;;;;;;5072484;28;20613;-80
2023/05/31 02:24:31;;;;;;;16.52;10.30;;;11.30;99.90;;;;;;5053871;28;20300;-81
2023/05/31 02:26:58;;;;;;;17.15;9.80;;;11.30;99.90;;;;;;5055679;28;20210;-83
2023/05/31 02:29:25;;;;;;;19.23;9.82;;;11.30;99.90;;;;;;5062577;28;20280;-82
2023/05/31 02:31:52;;;;;;;25.48;10.10;;;11.30;99.90;;;;;;5058471;28;20257;-83
2023/05/31 02:34:19;;;;;;;19.02;10.38;;;11.30;99.90;;;;;;5077064;28;20240;-84
2023/05/31 02:36:48;;;;;;;17.38;10.35;;;11.40;99.90;;;;;;5057017;28;20563;-82
2023/05/31 02:39:15;;;;;;;20.77;10.05;;;11.20;99.90;;;;;;5056336;28;20224;-81
2023/05/31 02:41:42;;;;;;;21.45;9.82;;;11.20;99.90;;;;;;5063395;28;20213;-81
2023/05/31 02:44:09;;;;;;;20.13;10.25;;;11.30;99.90;;;;;;5070838;28;20228;-83
2023/05/31 02:46:36;;;;;;;22.20;11.05;;;11.30;99.90;;;;;;5055394;28;20210;-82
2023/05/31 02:49:03;;;;;;;18.80;10.60;;;11.30;99.90;;;;;;5063511;28;20213;-81
2023/05/31 02:51:30;;;;;;;16.15;10.68;;;11.20;99.90;;;;;;5053082;28;20302;-82
2023/05/31 02:53:59;;;;;;;23.58;11.00;;;11.30;99.90;;;;;;5052059;28;20222;-80
2023/05/31 02:56:26;;;;;;;22.42;11.15;;;11.30;99.90;;;;;;5060620;28;20688;-82
2023/05/31 02:58:53;;;;;;;19.95;12.43;;;11.40;99.90;;;;;;5062836;28;20201;-81
2023/05/31 03:01:20;;;;;;;27.48;11.10;;;11.40;99.90;;;;;;5039211;28;20274;-82
2023/05/31 03:03:47;;;;;;;23.45;10.63;;;11.40;99.90;;;;;;5043116;28;20767;-83
2023/05/31 03:06:19;;;;;;;30.38;13.38;;;11.60;99.90;;;;;;5067192;28;20297;-83
2023/05/31 03:08:46;;;;;;;32.42;12.32;;;11.50;99.90;;;;;;5049914;28;20203;-82
2023/05/31 03:11:14;;;;;;;24.35;11.70;;;11.50;99.90;;;;;;5046482;28;20266;-80
2023/05/31 03:13:50;;;;;;;25.02;10.88;;;11.50;99.90;;;;;;5060102;28;20225;-79
2023/05/31 03:16:20;;;;;;;24.23;11.27;;;11.50;99.90;;;;;;5075094;28;20227;-79
2023/05/31 03:18:52;;;;;;;19.30;11.57;;;11.50;99.90;;;;;;5073767;28;20652;-82
2023/05/31 03:21:19;;;;;;;14.52;8.73;;;11.50;99.90;;;;;;5056658;28;20212;-79
2023/05/31 03:23:48;;;;;;;14.65;9.13;;;11.50;99.90;;;;;;5050751;28;20261;-81
2023/05/31 03:26:16;;;;;;;15.88;9.70;;;11.50;99.90;;;;;;5071713;28;20653;-82
2023/05/31 03:28:43;;;;;;;15.60;8.20;;;11.50;99.90;;;;;;5075952;28;20226;-79
2023/05/31 03:31:11;;;;;;;15.30;9.25;;;11.50;99.90;;;;;;5049563;28;20290;-80
2023/05/31 03:33:38;;;;;;;22.98;8.85;;;11.50;99.90;;;;;;5058709;28;20306;-81
2023/05/31 03:36:05;;;;;;;13.85;7.43;;;11.50;99.90;;;;;;5058747;28;20286;-82
2023/05/31 03:38:33;;;;;;;15.70;8.07;;;11.60;99.90;;;;;;5037820;28;20201;-79
2023/05/31 03:41:00;;;;;;;18.08;7.70;;;11.60;99.90;;;;;;5045508;28;20239;-79
2023/05/31 03:43:29;;;;;;;10.98;7.07;;;11.60;99.90;;;;;;5064615;28;20253;-81
2023/05/31 03:46:00;;;;;;;12.65;7.50;;;11.60;99.90;;;;;;5062677;28;20197;-80
2023/05/31 03:48:28;;;;;;;12.40;7.45;;;11.70;99.90;;;;;;5066659;28;20207;-81
2023/05/31 03:50:55;;;;;;;12.95;7.55;;;11.70;99.90;;;;;;5052058;28;20207;-81
2023/05/31 03:53:22;;;;;;;12.45;7.63;;;11.70;99.90;;;;;;5057710;28;20246;-78
2023/05/31 03:55:50;;;;;;;7.82;5.72;;;11.70;99.90;;;;;;5074471;28;20234;-81
2023/05/31 03:58:17;;;;;;;8.55;6.15;;;11.80;99.90;;;;;;5049786;28;20210;-83
2023/05/31 04:00:46;;;;;;;10.15;6.70;;;11.80;99.90;;;;;;5065813;28;20611;-78
2023/05/31 04:03:13;;;;;;;13.52;6.57;;;11.90;99.90;;;;;;5049982;28;20230;-81
2023/05/31 04:05:40;;;;;;;13.50;6.60;;;11.90;99.90;;;;;;5061059;28;20209;-79
2023/05/31 04:08:07;;;;;;;11.15;7.15;;;12.00;99.90;;;;;;5060115;28;20291;-82
2023/05/31 04:10:35;;;;;;;12.57;6.63;;;12.00;99.90;;;;;;5046756;28;20268;-84
2023/05/31 04:13:01;;;;;;;8.32;5.03;;;12.10;99.90;;;;;;5057774;28;20251;-79
2023/05/31 04:15:28;;;;;;;7.80;5.68;;;12.10;99.90;;;;;;5048615;28;20221;-80
2023/05/31 04:17:57;;;;;;;10.20;6.10;;;12.20;99.90;;;;;;5048928;28;20197;-83
2023/05/31 04:20:24;;;;;;;8.50;5.72;;;12.30;99.90;;;;;;5069208;28;20312;-82
2023/05/31 04:22:52;;;;;;;8.45;6.63;;;12.40;99.90;;;;;;5072629;28;20224;-78
2023/05/31 04:25:19;;;;;;;8.88;5.85;;;12.40;99.90;;;;;;5064706;28;20206;-82
2023/05/31 04:27:47;;;;;;;13.48;5.63;;;12.50;99.90;;;;;;5060751;28;20228;-84
2023/05/31 04:30:14;;;;;;;7.60;6.18;;;12.70;99.90;;;;;;5066204;28;20191;-81
2023/05/31 04:32:41;;;;;;;9.27;6.75;;;12.70;99.90;;;;;;5064209;28;20326;-79
2023/05/31 04:35:13;;;;;;;7.60;6.07;;;12.90;99.90;;;;;;5053932;28;20239;-79
2023/05/31 04:37:40;;;;;;;11.48;6.40;;;13.10;99.90;;;;;;5055258;28;20214;-80
2023/05/31 04:40:14;;;;;;;8.65;5.88;;;13.20;99.90;;;;;;5077239;28;20206;-79
2023/05/31 04:42:41;;;;;;;8.45;5.47;;;13.40;99.90;;;;;;5065952;28;20229;-79
2023/05/31 04:45:10;;;;;;;6.45;5.10;;;13.60;99.90;;;;;;5051227;28;20230;-80
2023/05/31 04:47:37;;;;;;;8.45;5.75;;;13.70;99.90;;;;;;5057560;28;20195;-80
2023/05/31 04:50:05;;;;;;;6.53;5.25;;;13.90;99.90;;;;;;5051060;28;20247;-78
2023/05/31 04:52:33;;;;;;;9.32;6.68;;;14.10;99.90;;;;;;5057453;28;20254;-80
2023/05/31 04:55:01;;;;;;;9.40;5.75;;;14.30;99.90;;;;;;5052765;28;20313;-82
2023/05/31 04:57:29;;;;;;;7.30;5.97;;;14.40;99.90;;;;;;5058053;28;20199;-81
2023/05/31 04:59:56;;;;;;;7.60;6.18;;;14.70;99.90;;;;;;5064145;28;20218;-81
2023/05/31 05:02:23;;;;;;;10.45;7.15;;;14.90;99.90;;;;;;5053651;28;20224;-85
2023/05/31 05:04:51;;;;;;;7.55;5.35;;;15.10;99.90;;;;;;5067356;28;20292;-81
2023/05/31 05:07:18;;;;;;;10.02;6.50;;;15.50;99.90;;;;;;5064474;28;20234;-81
2023/05/31 05:09:46;;;;;;;9.23;7.05;;;15.80;99.90;;;;;;5055518;28;20682;-80
2023/05/31 05:12:13;;;;;;;8.70;6.13;;;16.10;99.90;;;;;;5073083;28;20228;-80
2023/05/31 05:14:41;;;;;;;7.83;5.67;;;16.30;99.90;;;;;;5068765;28;20219;-81
2023/05/31 05:17:12;;;;;;;7.70;6.63;;;16.40;99.90;;;;;;5040401;28;20464;-78
2023/05/31 05:19:41;;;;;;;7.03;5.67;;;16.70;99.90;;;;;;5060328;28;20450;-77
2023/05/31 05:22:09;;;;;;;7.00;5.20;;;17.10;99.90;;;;;;5060208;28;20487;-79
2023/05/31 05:24:46;;;;;;;8.93;7.73;;;17.70;99.90;;;;;;5067561;28;20475;-82
2023/05/31 05:27:13;;;;;;;9.63;6.80;;;18.40;99.90;;;;;;5061999;28;20436;-84
2023/05/31 05:29:40;;;;;;;10.67;6.27;;;19.20;99.90;;;;;;5063909;28;20526;-78
2023/05/31 05:32:08;;;;;;;7.87;5.90;;;19.90;99.90;;;;;;5061158;28;20959;-79
2023/05/31 05:34:35;;;;;;;5.87;5.30;;;20.90;99.90;;;;;;5063285;28;20484;-81
2023/05/31 05:37:02;;;;;;;7.80;6.00;;;22.00;99.90;;;;;;5059215;28;20847;-77
2023/05/31 05:39:30;;;;;;;10.43;5.50;;;23.00;98.20;;;;;;5061078;28;20795;-86
2023/05/31 05:42:01;;;;;;;11.87;6.73;;;23.60;95.00;;;;;;5057503;28;20480;-79
2023/05/31 05:44:28;;;;;;;10.97;7.03;;;24.20;93.20;;;;;;5045734;28;20513;-77
2023/05/31 05:46:56;;;;;;;20.37;13.93;;;24.70;91.60;;;;;;5056859;28;20450;-80
2023/05/31 05:49:22;;;;;;;9.23;5.33;;;25.20;90.80;;;;;;5061883;28;20518;-81
2023/05/31 05:51:50;;;;;;;27.20;6.30;;;25.60;89.60;;;;;;5064888;28;20479;-79
2023/05/31 05:54:17;;;;;;;16.07;6.40;;;26.20;87.70;;;;;;5061022;28;20556;-82
2023/05/31 05:56:46;;;;;;;12.53;5.83;;;26.90;85.60;;;;;;5069093;28;20445;-81
2023/05/31 05:59:14;;;;;;;9.87;5.60;;;27.30;83.20;;;;;;5062730;28;20516;-82
2023/05/31 06:01:41;;;;;;;9.90;5.63;;;27.50;82.00;;;;;;5044256;28;20487;-79
2023/05/31 06:04:08;;;;;;;8.70;7.27;;;27.60;81.00;;;;;;5060789;28;20439;-80
2023/05/31 06:06:35;;;;;;;16.73;5.80;;;28.10;80.10;;;;;;5047978;28;20442;-81
2023/05/31 06:09:02;;;;;;;12.70;6.00;;;28.60;78.70;;;;;;5053302;28;20437;-79
2023/05/31 06:11:29;;;;;;;13.97;5.40;;;28.40;77.40;;;;;;5065849;28;20433;-79
2023/05/31 06:13:57;;;;;;;13.57;5.83;;;28.60;76.30;;;;;;5068424;28;20453;-78
2023/05/31 06:16:26;;;;;;;8.27;5.07;;;28.90;75.90;;;;;;5069750;28;20477;-81
2023/05/31 06:18:54;;;;;;;7.63;5.67;;;29.20;74.10;;;;;;5065185;28;20864;-79
2023/05/31 06:21:21;;;;;;;8.73;5.17;;;29.70;73.60;;;;;;5069221;28;20473;-80
2023/05/31 06:23:48;;;;;;;7.40;4.50;;;30.00;72.50;;;;;;5062807;28;20465;-81
2023/05/31 06:26:15;;;;;;;21.53;6.10;;;29.90;72.40;;;;;;5052345;28;20478;-80
2023/05/31 06:28:41;;;;;;;7.60;6.00;;;29.90;71.70;;;;;;5045665;28;20450;-76
2023/05/31 06:31:09;;;;;;;6.63;5.20;;;29.90;71.10;;;;;;5061750;28;20443;-81
2023/05/31 06:33:38;;;;;;;10.23;6.10;;;29.80;70.90;;;;;;5059771;28;20507;-79
2023/05/31 06:36:05;;;;;;;7.37;5.30;;;29.80;71.40;;;;;;5058782;28;20463;-83
2023/05/31 06:38:34;;;;;;;6.97;6.10;;;29.90;69.50;;;;;;5084483;28;20446;-84
2023/05/31 06:41:01;;;;;;;7.03;5.20;;;30.10;70.30;;;;;;5078316;28;20525;-83
2023/05/31 06:43:29;;;;;;;10.23;5.13;;;30.80;68.30;;;;;;5091305;28;20484;-85
2023/05/31 06:45:56;;;;;;;8.43;4.97;;;31.10;67.70;;;;;;5049175;28;20466;-80
2023/05/31 06:48:23;;;;;;;5.30;4.30;;;30.90;67.40;;;;;;5064806;28;20535;-86
2023/05/31 06:51:04;;;;;;;7.20;5.03;;;30.70;67.30;;;;;;5059277;28;20453;-86
2023/05/31 06:53:31;;;;;;;4.67;3.50;;;30.40;68.20;;;;;;5069568;28;20496;-82
2023/05/31 06:56:46;;;;;;;5.33;4.10;;;30.60;67.80;;;;;;5082280;28;20512;-87
2023/05/31 06:59:20;;;;;;;12.57;4.70;;;30.90;67.20;;;;;;5035303;28;20451;-82
2023/05/31 07:01:47;;;;;;;4.87;4.03;;;30.70;67.50;;;;;;5057877;28;20462;-85
2023/05/31 07:04:15;;;;;;;10.63;4.20;;;30.40;68.30;;;;;;5052201;28;20454;-86
2023/05/31 07:07:11;;;;;;;5.17;3.63;;;30.60;67.90;;;;;;5044305;28;20538;-85
2023/05/31 07:13:00;;;;;;;7.83;4.60;;;30.70;66.80;;;;;;5074645;22;20588;-82
2023/05/31 07:15:27;;;;;;;7.13;4.77;;;30.50;67.00;;;;;;5046463;28;20479;-81
2023/05/31 07:17:54;;;;;;;4.73;3.53;;;30.70;67.20;;;;;;5049803;28;20439;-82
2023/05/31 07:20:21;;;;;;;5.93;3.80;;;30.90;66.60;;;;;;5040856;28;20516;-81
2023/05/31 07:22:51;;;;;;;8.03;3.77;;;31.00;67.00;;;;;;5016588;28;20440;-82
2023/05/31 07:25:17;;;;;;;5.33;3.80;;;31.20;66.20;;;;;;5026323;28;20451;-82
2023/05/31 07:27:44;;;;;;;6.07;4.70;;;31.00;66.10;;;;;;5027814;28;20452;-82
2023/05/31 07:30:12;;;;;;;10.43;4.03;;;31.10;66.00;;;;;;5020263;28;20502;-82
2023/05/31 07:32:39;;;;;;;4.90;3.70;;;31.50;65.60;;;;;;5035972;28;20452;-82
2023/05/31 07:35:07;;;;;;;6.27;3.70;;;31.30;65.30;;;;;;5029610;28;20488;-81
2023/05/31 07:37:35;;;;;;;6.70;4.30;;;31.30;64.60;;;;;;5028376;28;20514;-82
2023/05/31 07:40:04;;;;;;;8.50;4.40;;;31.80;64.30;;;;;;5020377;28;20448;-84
2023/05/31 07:42:32;;;;;;;8.43;4.00;;;32.20;64.20;;;;;;5027604;28;20472;-84
2023/05/31 07:45:00;;;;;;;6.20;3.80;;;32.20;63.30;;;;;;5029795;28;20451;-83
2023/05/31 07:47:27;;;;;;;7.03;4.37;;;32.10;63.10;;;;;;5033367;28;20478;-83
2023/05/31 07:49:54;;;;;;;7.77;4.90;;;32.30;62.80;;;;;;5029531;28;20486;-82
2023/05/31 07:52:22;;;;;;;8.77;4.50;;;32.20;62.90;;;;;;5027167;28;20611;-81
2023/05/31 07:54:50;;;;;;;8.40;4.57;;;31.80;63.20;;;;;;5021797;28;20553;-82
2023/05/31 07:57:18;;;;;;;6.90;4.40;;;32.00;63.50;;;;;;5035895;28;20514;-83
2023/05/31 07:59:48;;;;;;;7.87;4.50;;;31.60;63.20;;;;;;5024466;28;20456;-83
2023/05/31 08:02:15;;;;;;;9.43;5.17;;;31.80;63.30;;;;;;5036393;28;20503;-84
2023/05/31 08:04:43;;;;;;;8.70;5.03;;;31.30;63.00;;;;;;5034839;28;20447;-84
2023/05/31 08:07:10;;;;;;;10.17;4.97;;;31.30;63.60;;;;;;5034520;28;20484;-83
2023/05/31 08:09:37;;;;;;;11.73;5.83;;;31.10;64.20;;;;;;5035039;28;20461;-84
2023/05/31 08:12:06;;;;;;;5.83;4.87;;;31.10;65.10;;;;;;5031173;28;20475;-85
2023/05/31 08:14:34;;;;;;;5.63;5.03;;;31.40;65.20;;;;;;5029552;28;20470;-83
2023/05/31 08:17:01;;;;;;;8.70;4.60;;;31.60;64.80;;;;;;5031202;28;20431;-82
2023/05/31 08:19:28;;;;;;;6.40;4.20;;;31.60;64.50;;;;;;5042308;28;20448;-82
2023/05/31 08:21:55;;;;;;;6.00;3.97;;;31.60;64.70;;;;;;5027546;28;20468;-84
2023/05/31 08:24:22;;;;;;;5.67;3.90;;;32.10;62.90;;;;;;5032067;28;20467;-82
2023/05/31 08:26:50;;;;;;;12.00;4.10;;;32.00;61.30;;;;;;5036017;28;20452;-81
2023/05/31 08:29:17;;;;;;;8.67;3.80;;;31.70;61.60;;;;;;5035019;28;20441;-84
2023/05/31 08:31:45;;;;;;;5.90;4.10;;;31.70;61.80;;;;;;5034091;28;20452;-84
2023/05/31 08:34:12;;;;;;;7.67;4.23;;;31.60;61.80;;;;;;5034930;28;20487;-83
2023/05/31 08:36:40;;;;;;;6.43;3.57;;;32.00;61.50;;;;;;5029548;28;20515;-84
2023/05/31 08:39:08;;;;;;;5.77;4.00;;;32.30;60.40;;;;;;5031113;28;20455;-84
2023/05/31 08:41:43;;;;;;;18.00;4.60;;;32.10;59.10;;;;;;5034452;28;20468;-83
2023/05/31 08:44:12;;;;;;;8.50;4.67;;;32.20;59.70;;;;;;5037506;28;20453;-82
2023/05/31 08:46:40;;;;;;;6.30;3.80;;;31.60;60.30;;;;;;5053606;28;20440;-82
2023/05/31 08:49:11;;;;;;;6.50;3.60;;;31.60;60.80;;;;;;5033968;28;20455;-83
2023/05/31 08:51:40;;;;;;;7.63;4.07;;;31.60;60.10;;;;;;5036235;28;20471;-83
2023/05/31 08:54:09;;;;;;;6.73;4.20;;;31.80;60.60;;;;;;5037524;28;20474;-83
2023/05/31 08:56:37;;;;;;;7.00;3.90;;;31.70;60.40;;;;;;5041096;28;20502;-82
2023/05/31 08:59:08;;;;;;;8.47;3.73;;;31.80;59.50;;;;;;5029473;28;20432;-83
2023/05/31 09:01:36;;;;;;;7.13;3.90;;;31.70;59.90;;;;;;5038326;28;20482;-81
2023/05/31 09:04:05;;;;;;;7.27;4.30;;;31.90;60.70;;;;;;5048152;28;20467;-82
2023/05/31 09:06:34;;;;;;;7.90;4.10;;;32.10;60.30;;;;;;5028846;28;20436;-82
2023/05/31 09:09:01;;;;;;;10.73;4.30;;;32.30;59.80;;;;;;5040065;28;20531;-82
2023/05/31 09:11:32;;;;;;;7.60;4.73;;;32.10;60.90;;;;;;5039270;28;20502;-83
2023/05/31 09:13:59;;;;;;;12.57;4.40;;;32.00;59.90;;;;;;5038995;28;20527;-83
2023/05/31 09:16:26;;;;;;;7.27;4.00;;;32.30;60.00;;;;;;5051659;28;20494;-84
2023/05/31 09:19:02;;;;;;;7.97;3.97;;;32.40;59.70;;;;;;5045723;28;20448;-83
2023/05/31 09:21:30;;;;;;;9.70;4.27;;;32.60;59.20;;;;;;5028443;28;20463;-83
2023/05/31 09:23:59;;;;;;;6.13;3.63;;;32.60;59.00;;;;;;5051220;28;20430;-83
2023/05/31 09:26:26;;;;;;;5.33;3.50;;;32.40;59.10;;;;;;5043325;28;20459;-84
2023/05/31 09:28:54;;;;;;;6.00;4.27;;;32.30;56.80;;;;;;5046097;28;20445;-83
2023/05/31 09:31:22;;;;;;;5.97;3.43;;;31.70;58.00;;;;;;5036917;28;20456;-83
2023/05/31 09:33:51;;;;;;;8.93;4.03;;;31.10;59.80;;;;;;5056023;28;20560;-83
2023/05/31 09:36:25;;;;;;;8.40;4.67;;;31.00;59.30;;;;;;5057480;28;20536;-83
2023/05/31 09:39:05;;;;;;;5.40;3.50;;;30.90;60.10;;;;;;5039657;28;20443;-82
2023/05/31 09:41:33;;;;;;;6.07;3.60;;;31.40;59.60;;;;;;5033032;28;20539;-84
2023/05/31 09:44:00;;;;;;;8.73;3.73;;;31.90;58.50;;;;;;5034711;28;20417;-83
2023/05/31 09:46:27;;;;;;;5.13;3.00;;;31.80;57.40;;;;;;5037105;28;20428;-83
2023/05/31 09:49:03;;;;;;;8.03;3.33;;;31.60;57.70;;;;;;5026461;28;20463;-82
2023/05/31 09:51:32;;;;;;;7.27;3.53;;;31.30;57.30;;;;;;5036225;28;20463;-83
2023/05/31 09:54:06;;;;;;;4.20;3.40;;;31.50;57.50;;;;;;5039216;28;20459;-84
2023/05/31 09:56:38;;;;;;;7.03;3.70;;;31.50;57.20;;;;;;5031668;28;20485;-82
2023/05/31 09:59:05;;;;;;;5.90;3.10;;;31.50;56.50;;;;;;5037701;28;20463;-83
2023/05/31 10:01:33;;;;;;;6.47;4.30;;;31.50;57.30;;;;;;5033046;28;20456;-84
2023/05/31 10:04:03;;;;;;;5.50;3.20;;;31.30;57.20;;;;;;5035954;28;20448;-85
2023/05/31 10:06:36;;;;;;;10.07;5.27;;;31.30;57.10;;;;;;5016019;28;20432;-83
2023/05/31 10:09:04;;;;;;;7.63;3.80;;;31.10;58.00;;;;;;5028863;28;20452;-84
2023/05/31 10:11:34;;;;;;;5.70;3.27;;;31.10;57.90;;;;;;5040686;28;20522;-81
2023/05/31 10:14:04;;;;;;;8.67;4.10;;;31.80;57.60;;;;;;5036566;28;20492;-79
2023/05/31 10:16:47;;;;;;;6.40;3.97;;;32.10;56.90;;;;;;5025886;28;20506;-82
2023/05/31 10:19:21;;;;;;;4.70;3.33;;;31.90;57.80;;;;;;5027645;28;20535;-81
2023/05/31 10:21:50;;;;;;;7.20;3.60;;;32.00;57.10;;;;;;5028142;28;20491;-82
2023/05/31 10:24:24;;;;;;;16.93;4.13;;;32.10;57.50;;;;;;5030393;28;20479;-82
2023/05/31 10:27:02;;;;;;;6.80;3.73;;;31.40;57.60;;;;;;5028441;28;20447;-82
2023/05/31 10:29:34;;;;;;;6.43;3.03;;;31.00;57.30;;;;;;5025641;28;20448;-79
2023/05/31 10:32:09;;;;;;;6.00;4.27;;;30.50;57.40;;;;;;5027015;28;20512;-84
2023/05/31 10:34:36;;;;;;;8.73;4.80;;;30.20;58.70;;;;;;5029537;28;20448;-83
2023/05/31 10:37:06;;;;;;;7.77;3.50;;;30.00;59.80;;;;;;5031181;28;20590;-83
2023/05/31 10:39:39;;;;;;;10.50;3.67;;;29.80;60.10;;;;;;5029679;28;20534;-81
2023/05/31 10:42:10;;;;;;;6.23;3.80;;;29.40;60.70;;;;;;5029251;28;20638;-82
2023/05/31 10:44:43;;;;;;;10.60;3.20;;;29.00;61.70;;;;;;5031122;28;20476;-83
2023/05/31 10:47:12;;;;;;;11.93;3.47;;;28.60;62.20;;;;;;5024003;28;20432;-82
2023/05/31 10:49:42;;;;;;;7.33;3.40;;;27.90;63.50;;;;;;5025927;28;20523;-82
2023/05/31 10:52:10;;;;;;;6.33;4.07;;;27.70;64.60;;;;;;5025403;28;20483;-82
2023/05/31 10:54:40;;;;;;;6.03;3.93;;;27.20;66.00;;;;;;5034311;28;20504;-85
2023/05/31 10:57:10;;;;;;;7.07;3.60;;;26.80;66.20;;;;;;5033701;28;20478;-82
2023/05/31 10:59:45;;;;;;;15.33;5.17;;;26.60;67.30;;;;;;5035258;28;20555;-85
2023/05/31 11:02:12;;;;;;;7.50;3.40;;;26.50;67.70;;;;;;5030444;28;20523;-83
2023/05/31 11:04:39;;;;;;;9.90;3.40;;;26.40;68.00;;;;;;5032185;28;20460;-84
2023/05/31 11:07:15;;;;;;;11.40;4.07;;;26.40;69.30;;;;;;5027145;28;20468;-84
2023/05/31 11:09:56;;;;;;;9.17;3.23;;;26.40;68.80;;;;;;5025235;28;20455;-84
2023/05/31 11:12:34;;;;;;;7.50;3.67;;;26.60;69.20;;;;;;5033556;28;20462;-84
2023/05/31 11:15:03;;;;;;;8.93;3.33;;;26.70;68.30;;;;;;5028902;28;20432;-84
2023/05/31 11:17:30;;;;;;;5.10;2.73;;;26.70;68.90;;;;;;5022009;28;20883;-82
2023/05/31 11:19:58;;;;;;;7.03;4.10;;;26.80;68.50;;;;;;5036906;28;20448;-84
2023/05/31 11:22:28;;;;;;;7.80;3.80;;;26.90;68.20;;;;;;5030657;28;20470;-83
2023/05/31 11:24:58;;;;;;;9.93;3.97;;;26.80;68.00;;;;;;5027261;28;20452;-84
2023/05/31 11:27:35;;;;;;;11.50;4.30;;;26.60;68.10;;;;;;5034945;28;20452;-84
2023/05/31 11:30:04;;;;;;;6.37;4.20;;;26.50;71.40;;;;;;5036640;28;20456;-83
2023/05/31 11:32:56;;;;;;;11.70;4.20;;;26.50;73.80;;;;;;5027656;28;20451;-83
2023/05/31 11:35:24;;;;;;;9.30;4.80;;;26.20;75.40;;;;;;5029386;28;20451;-82
2023/05/31 11:37:59;;;;;;;11.53;3.70;;;25.80;76.70;;;;;;5035717;28;20982;-83
2023/05/31 11:40:28;;;;;;;7.03;4.13;;;25.50;78.00;;;;;;5036307;28;20486;-83
2023/05/31 11:43:04;;;;;;;7.40;4.47;;;25.10;79.90;;;;;;5027830;28;20442;-82
2023/05/31 11:45:33;;;;;;;8.47;3.73;;;24.90;80.70;;;;;;5047560;28;20458;-82
2023/05/31 11:48:18;;;;;;;5.10;3.60;;;24.70;82.40;;;;;;5046067;28;20448;-82
2023/05/31 11:50:45;;;;;;;7.53;3.70;;;24.90;81.80;;;;;;5047892;28;20581;-82
2023/05/31 11:53:12;;;;;;;6.50;4.13;;;25.00;82.00;;;;;;5042775;28;20443;-82
2023/05/31 11:55:47;;;;;;;6.60;3.87;;;25.00;81.70;;;;;;5045854;28;20456;-81
2023/05/31 11:58:14;;;;;;;7.27;4.20;;;25.00;81.90;;;;;;5039165;28;20430;-82
2023/05/31 12:00:45;;;;;;;5.93;3.03;;;24.90;82.10;;;;;;5029171;28;20480;-80
2023/05/31 12:03:16;;;;;;;6.70;3.37;;;24.90;82.20;;;;;;5052293;28;20443;-80
2023/05/31 12:05:45;;;;;;;5.53;3.60;;;24.90;81.70;;;;;;5041987;28;20479;-81
2023/05/31 12:08:14;;;;;;;9.17;3.63;;;25.10;81.80;;;;;;5032272;28;20455;-82
2023/05/31 12:10:45;;;;;;;7.90;4.90;;;25.30;80.70;;;;;;5032756;28;20555;-79
2023/05/31 12:13:12;;;;;;;9.80;3.80;;;25.30;80.10;;;;;;5037872;28;20471;-82
2023/05/31 12:15:39;;;;;;;7.37;4.43;;;25.40;79.70;;;;;;5027231;28;20468;-84
2023/05/31 12:18:06;;;;;;;14.30;5.80;;;25.30;79.00;;;;;;5042136;28;20452;-83
2023/05/31 12:20:34;;;;;;;10.70;3.90;;;25.30;78.90;;;;;;5034812;28;20467;-79
2023/05/31 12:23:12;;;;;;;9.93;4.20;;;25.30;78.80;;;;;;5041104;28;20548;-80
2023/05/31 12:25:46;;;;;;;7.40;4.40;;;25.10;79.20;;;;;;5037593;28;20459;-79
2023/05/31 12:28:13;;;;;;;9.30;4.10;;;25.00;78.70;;;;;;5035004;28;20443;-80
2023/05/31 12:30:44;;;;;;;7.73;4.37;;;24.90;80.00;;;;;;5040452;28;20471;-80
2023/05/31 12:33:12;;;;;;;11.10;4.33;;;25.00;79.40;;;;;;5040644;28;20719;-81
2023/05/31 12:35:43;;;;;;;7.50;4.20;;;25.00;79.40;;;;;;5024464;28;20424;-81
2023/05/31 12:38:10;;;;;;;5.80;4.40;;;25.00;79.40;;;;;;5035899;28;21447;-80
2023/05/31 12:40:43;;;;;;;10.70;5.03;;;25.00;78.40;;;;;;5040542;28;20460;-81
2023/05/31 12:43:14;;;;;;;9.03;4.20;;;25.00;79.00;;;;;;5040631;28;20428;-82
2023/05/31 12:45:41;;;;;;;7.07;3.67;;;25.00;79.10;;;;;;5055256;28;20450;-80
2023/05/31 12:48:10;;;;;;;3.90;2.90;;;25.00;79.90;;;;;;5043685;28;20464;-82
2023/05/31 12:50:38;;;;;;;7.67;3.33;;;25.00;77.60;;;;;;5041400;28;20482;-82
2023/05/31 12:53:07;;;;;;;5.63;3.20;;;24.90;77.00;;;;;;5032456;28;20462;-82
2023/05/31 12:55:34;;;;;;;7.00;2.93;;;24.80;77.70;;;;;;5022727;28;20490;-84